createdAt,value
2017-10-08T00:00:15.279Z,0
2017-10-08T00:00:55.808Z,0
2017-10-08T00:01:36.322Z,0
2017-10-08T00:02:16.869Z,0
2017-10-08T00:02:57.406Z,0
2017-10-08T00:03:37.941Z,0
2017-10-08T00:04:18.456Z,0
2017-10-08T00:04:58.988Z,0
2017-10-08T00:05:39.520Z,0
2017-10-08T00:06:20.037Z,0
2017-10-08T00:07:00.583Z,0
2017-10-08T00:07:41.095Z,0
2017-10-08T00:08:21.629Z,0
2017-10-08T00:09:02.166Z,0
2017-10-08T00:09:42.704Z,0
2017-10-08T00:10:23.258Z,0
2017-10-08T00:11:03.777Z,0
2017-10-08T00:11:44.310Z,0
2017-10-08T00:12:24.822Z,0
2017-10-08T00:13:05.434Z,0
2017-10-08T00:13:45.962Z,0
2017-10-08T00:14:26.506Z,0
2017-10-08T00:15:07.032Z,0
2017-10-08T00:15:47.562Z,0
2017-10-08T00:16:28.090Z,0
2017-10-08T00:17:08.621Z,0
2017-10-08T00:17:49.134Z,0
2017-10-08T00:18:29.659Z,0
2017-10-08T00:19:10.187Z,0
2017-10-08T00:19:50.692Z,0
2017-10-08T00:20:31.229Z,0
2017-10-08T00:21:11.772Z,0
2017-10-08T00:21:52.299Z,0
2017-10-08T00:22:32.881Z,0
2017-10-08T00:23:13.418Z,0
2017-10-08T00:23:53.942Z,0
2017-10-08T00:24:34.476Z,0
2017-10-08T00:25:15.001Z,0
2017-10-08T00:25:55.535Z,0
2017-10-08T00:26:36.043Z,0
2017-10-08T00:27:16.555Z,0
2017-10-08T00:27:57.076Z,0
2017-10-08T00:28:37.575Z,0
2017-10-08T00:29:18.083Z,0
2017-10-08T00:29:58.614Z,0
2017-10-08T00:30:39.136Z,0
2017-10-08T00:31:19.672Z,0
2017-10-08T00:32:00.187Z,0
2017-10-08T00:32:40.729Z,0
2017-10-08T00:33:21.263Z,0
2017-10-08T00:34:01.795Z,0
2017-10-08T00:34:42.346Z,0
2017-10-08T00:35:22.853Z,0
2017-10-08T00:36:03.428Z,0
2017-10-08T00:36:43.955Z,0
2017-10-08T00:37:24.488Z,0
2017-10-08T00:38:05.026Z,0
2017-10-08T00:38:45.550Z,0
2017-10-08T00:39:26.098Z,0
2017-10-08T00:40:06.636Z,0
2017-10-08T00:40:47.169Z,0
2017-10-08T00:41:27.687Z,0
2017-10-08T00:42:08.198Z,0
2017-10-08T00:42:48.732Z,0
2017-10-08T00:43:29.274Z,0
2017-10-08T00:44:09.780Z,0
2017-10-08T00:44:50.299Z,0
2017-10-08T00:45:30.841Z,0
2017-10-08T00:46:11.349Z,0
2017-10-08T00:46:51.887Z,0
2017-10-08T00:47:32.416Z,0
2017-10-08T00:48:12.955Z,0
2017-10-08T00:48:53.487Z,0
2017-10-08T00:49:34.009Z,0
2017-10-08T00:50:14.541Z,0
2017-10-08T00:50:55.070Z,0
2017-10-08T00:51:35.591Z,0
2017-10-08T00:52:16.114Z,0
2017-10-08T00:52:56.646Z,0
2017-10-08T00:53:37.184Z,0
2017-10-08T00:54:17.711Z,0
2017-10-08T00:54:58.214Z,0
2017-10-08T00:55:38.756Z,0
2017-10-08T00:56:19.288Z,0
2017-10-08T00:56:59.815Z,0
2017-10-08T00:57:40.338Z,0
2017-10-08T00:58:20.870Z,0
2017-10-08T00:59:01.394Z,0
2017-10-08T00:59:41.956Z,0
2017-10-08T01:00:22.498Z,0
2017-10-08T01:01:03.033Z,0
2017-10-08T01:01:43.567Z,0
2017-10-08T01:02:24.099Z,0
2017-10-08T01:03:04.622Z,0
2017-10-08T01:03:45.140Z,0
2017-10-08T01:04:25.666Z,0
2017-10-08T01:05:06.205Z,0
2017-10-08T01:05:46.732Z,0
2017-10-08T01:06:27.264Z,0
2017-10-08T01:07:07.781Z,0
2017-10-08T01:07:48.321Z,0
2017-10-08T01:08:28.854Z,0
2017-10-08T01:09:09.379Z,0
2017-10-08T01:09:49.910Z,0
2017-10-08T01:10:30.430Z,0
2017-10-08T01:11:10.952Z,0
2017-10-08T01:11:51.466Z,0
2017-10-08T01:12:31.996Z,0
2017-10-08T01:13:12.510Z,0
2017-10-08T01:13:53.058Z,0
2017-10-08T01:14:33.559Z,0
2017-10-08T01:15:14.093Z,0
2017-10-08T01:15:54.612Z,0
2017-10-08T01:16:35.138Z,0
2017-10-08T01:17:15.669Z,0
2017-10-08T01:17:56.205Z,0
2017-10-08T01:18:36.741Z,0
2017-10-08T01:19:17.281Z,0
2017-10-08T01:19:57.799Z,0
2017-10-08T01:20:38.315Z,0
2017-10-08T01:21:18.830Z,0
2017-10-08T01:21:59.349Z,0
2017-10-08T01:22:39.867Z,0
2017-10-08T01:23:20.392Z,0
2017-10-08T01:24:00.973Z,0
2017-10-08T01:24:41.512Z,0
2017-10-08T01:25:22.044Z,0
2017-10-08T01:26:02.577Z,0
2017-10-08T01:26:43.105Z,0
2017-10-08T01:27:23.625Z,0
2017-10-08T01:28:04.150Z,0
2017-10-08T01:28:44.670Z,0
2017-10-08T01:29:25.213Z,0
2017-10-08T01:30:05.724Z,0
2017-10-08T01:30:46.263Z,0
2017-10-08T01:31:26.803Z,0
2017-10-08T01:32:07.339Z,0
2017-10-08T01:32:47.861Z,0
2017-10-08T01:33:28.387Z,0
2017-10-08T01:34:08.918Z,0
2017-10-08T01:34:49.444Z,0
2017-10-08T01:35:29.961Z,0
2017-10-08T01:36:10.481Z,0
2017-10-08T01:36:51.016Z,0
2017-10-08T01:37:31.549Z,0
2017-10-08T01:38:12.069Z,0
2017-10-08T01:38:52.594Z,0
2017-10-08T01:39:33.150Z,0
2017-10-08T01:40:13.679Z,0
2017-10-08T01:40:54.219Z,0
2017-10-08T01:41:34.743Z,0
2017-10-08T01:42:15.280Z,0
2017-10-08T01:42:55.808Z,0
2017-10-08T01:43:36.333Z,0
2017-10-08T01:44:16.880Z,0
2017-10-08T01:44:57.396Z,0
2017-10-08T01:45:37.929Z,0
2017-10-08T01:46:18.466Z,0
2017-10-08T01:46:58.989Z,0
2017-10-08T01:47:39.507Z,0
2017-10-08T01:48:20.021Z,0
2017-10-08T01:49:00.541Z,0
2017-10-08T01:49:41.064Z,0
2017-10-08T01:50:21.569Z,0
2017-10-08T01:51:02.094Z,0
2017-10-08T01:51:42.616Z,0
2017-10-08T01:52:23.196Z,0
2017-10-08T01:53:03.704Z,0
2017-10-08T01:53:44.240Z,0
2017-10-08T01:54:24.771Z,0
2017-10-08T01:55:05.302Z,0
2017-10-08T01:55:45.835Z,0
2017-10-08T01:56:26.370Z,0
2017-10-08T01:57:06.898Z,0
2017-10-08T01:57:47.422Z,0
2017-10-08T01:58:27.942Z,0
2017-10-08T01:59:08.476Z,0
2017-10-08T01:59:49.016Z,0
2017-10-08T02:00:29.550Z,0
2017-10-08T02:01:10.057Z,0
2017-10-08T02:01:50.571Z,0
2017-10-08T02:02:31.104Z,0
2017-10-08T02:03:11.642Z,0
2017-10-08T02:03:52.177Z,0
2017-10-08T02:04:32.705Z,0
2017-10-08T02:05:13.237Z,0
2017-10-08T02:05:53.759Z,0
2017-10-08T02:06:34.289Z,0
2017-10-08T02:07:14.815Z,0
2017-10-08T02:07:55.345Z,0
2017-10-08T02:08:35.865Z,0
2017-10-08T02:09:16.377Z,0
2017-10-08T02:09:56.901Z,0
2017-10-08T02:10:37.440Z,0
2017-10-08T02:11:17.952Z,0
2017-10-08T02:11:58.484Z,0
2017-10-08T02:12:39.001Z,0
2017-10-08T02:13:19.535Z,0
2017-10-08T02:14:00.070Z,0
2017-10-08T02:14:40.604Z,0
2017-10-08T02:15:21.133Z,0
2017-10-08T02:16:01.659Z,0
2017-10-08T02:16:42.198Z,0
2017-10-08T02:17:22.738Z,0
2017-10-08T02:18:03.275Z,0
2017-10-08T02:18:43.809Z,0
2017-10-08T02:19:24.333Z,0
2017-10-08T02:20:04.850Z,0
2017-10-08T02:20:45.361Z,0
2017-10-08T02:21:25.872Z,0
2017-10-08T02:22:06.397Z,0
2017-10-08T02:22:46.922Z,0
2017-10-08T02:23:27.442Z,0
2017-10-08T02:24:07.959Z,0
2017-10-08T02:24:48.503Z,0
2017-10-08T02:25:29.030Z,0
2017-10-08T02:26:09.577Z,0
2017-10-08T02:26:50.086Z,0
2017-10-08T02:27:30.609Z,0
2017-10-08T02:28:11.146Z,0
2017-10-08T02:28:51.681Z,0
2017-10-08T02:29:32.209Z,0
2017-10-08T02:30:12.739Z,0
2017-10-08T02:30:53.262Z,0
2017-10-08T02:31:33.797Z,0
2017-10-08T02:32:14.317Z,0
2017-10-08T02:32:54.843Z,0
2017-10-08T02:33:35.363Z,0
2017-10-08T02:34:15.907Z,0
2017-10-08T02:34:56.434Z,0
2017-10-08T02:35:36.951Z,0
2017-10-08T02:36:17.498Z,0
2017-10-08T02:36:58.000Z,0
2017-10-08T02:37:38.523Z,0
2017-10-08T02:38:19.052Z,0
2017-10-08T02:38:59.583Z,0
2017-10-08T02:39:40.103Z,0
2017-10-08T02:40:20.628Z,0
2017-10-08T02:41:01.146Z,0
2017-10-08T02:41:41.680Z,0
2017-10-08T02:42:22.214Z,0
2017-10-08T02:43:02.752Z,0
2017-10-08T02:43:43.284Z,0
2017-10-08T02:44:23.818Z,0
2017-10-08T02:45:04.322Z,0
2017-10-08T02:45:44.861Z,0
2017-10-08T02:46:25.385Z,0
2017-10-08T02:47:05.897Z,0
2017-10-08T02:47:46.408Z,0
2017-10-08T02:48:26.954Z,0
2017-10-08T02:49:07.471Z,0
2017-10-08T02:49:48.009Z,0
2017-10-08T02:50:28.510Z,0
2017-10-08T02:51:09.033Z,0
2017-10-08T02:51:49.549Z,0
2017-10-08T02:52:30.070Z,0
2017-10-08T02:53:10.604Z,0
2017-10-08T02:53:51.135Z,0
2017-10-08T02:54:31.666Z,0
2017-10-08T02:55:12.193Z,0
2017-10-08T02:55:52.717Z,0
2017-10-08T02:56:33.237Z,0
2017-10-08T02:57:13.789Z,0
2017-10-08T02:57:54.318Z,0
2017-10-08T02:58:34.829Z,0
2017-10-08T02:59:15.368Z,0
2017-10-08T02:59:55.903Z,0
2017-10-08T03:00:36.441Z,0
2017-10-08T03:01:16.972Z,0
2017-10-08T03:01:57.492Z,0
2017-10-08T03:02:38.011Z,0
2017-10-08T03:03:18.539Z,0
2017-10-08T03:03:59.063Z,0
2017-10-08T03:04:39.597Z,0
2017-10-08T03:05:20.129Z,0
2017-10-08T03:06:00.662Z,0
2017-10-08T03:06:41.206Z,0
2017-10-08T03:07:21.729Z,0
2017-10-08T03:08:02.246Z,0
2017-10-08T03:08:42.789Z,0
2017-10-08T03:09:23.339Z,0
2017-10-08T03:10:03.872Z,0
2017-10-08T03:10:44.374Z,0
2017-10-08T03:11:24.883Z,0
2017-10-08T03:12:05.415Z,0
2017-10-08T03:12:45.949Z,0
2017-10-08T03:13:26.482Z,0
2017-10-08T03:14:07.001Z,0
2017-10-08T03:14:47.533Z,0
2017-10-08T03:15:28.070Z,0
2017-10-08T03:16:08.605Z,0
2017-10-08T03:16:49.133Z,0
2017-10-08T03:17:29.656Z,0
2017-10-08T03:18:10.149Z,0
2017-10-08T03:18:50.672Z,0
2017-10-08T03:19:31.181Z,0
2017-10-08T03:20:11.704Z,0
2017-10-08T03:20:52.247Z,0
2017-10-08T03:21:32.787Z,0
2017-10-08T03:22:13.320Z,0
2017-10-08T03:22:53.836Z,0
2017-10-08T03:23:34.358Z,0
2017-10-08T03:24:14.892Z,0
2017-10-08T03:24:55.402Z,0
2017-10-08T03:25:35.932Z,0
2017-10-08T03:26:16.453Z,0
2017-10-08T03:26:56.979Z,0
2017-10-08T03:27:37.501Z,0
2017-10-08T03:28:18.036Z,0
2017-10-08T03:28:58.575Z,0
2017-10-08T03:29:39.091Z,0
2017-10-08T03:30:19.605Z,0
2017-10-08T03:31:00.136Z,0
2017-10-08T03:31:40.671Z,0
2017-10-08T03:32:21.197Z,0
2017-10-08T03:33:01.719Z,0
2017-10-08T03:33:42.244Z,0
2017-10-08T03:34:22.769Z,0
2017-10-08T03:35:03.305Z,0
2017-10-08T03:35:43.829Z,0
2017-10-08T03:36:24.347Z,0
2017-10-08T03:37:04.889Z,0
2017-10-08T03:37:45.429Z,0
2017-10-08T03:38:25.964Z,0
2017-10-08T03:39:06.510Z,0
2017-10-08T03:39:47.034Z,0
2017-10-08T03:40:27.563Z,0
2017-10-08T03:41:08.119Z,0
2017-10-08T03:41:48.624Z,0
2017-10-08T03:42:29.161Z,0
2017-10-08T03:43:09.689Z,0
2017-10-08T03:43:50.206Z,0
2017-10-08T03:44:30.732Z,0
2017-10-08T03:45:11.275Z,0
2017-10-08T03:45:51.779Z,0
2017-10-08T03:46:32.300Z,0
2017-10-08T03:47:12.836Z,0
2017-10-08T03:47:53.371Z,0
2017-10-08T03:48:33.895Z,0
2017-10-08T03:49:14.406Z,0
2017-10-08T03:49:54.932Z,0
2017-10-08T03:50:35.453Z,0
2017-10-08T03:51:15.987Z,0
2017-10-08T03:51:56.504Z,0
2017-10-08T03:52:37.037Z,0
2017-10-08T03:53:17.562Z,0
2017-10-08T03:53:58.093Z,0
2017-10-08T03:54:38.611Z,0
2017-10-08T03:55:19.103Z,0
2017-10-08T03:55:59.643Z,0
2017-10-08T03:56:40.149Z,0
2017-10-08T03:57:20.677Z,0
2017-10-08T03:58:01.172Z,0
2017-10-08T03:58:41.707Z,0
2017-10-08T03:59:22.237Z,0
2017-10-08T04:00:02.778Z,0
2017-10-08T04:00:43.300Z,0
2017-10-08T04:01:23.839Z,0
2017-10-08T04:02:04.359Z,0
2017-10-08T04:02:44.878Z,0
2017-10-08T04:03:25.612Z,0
2017-10-08T04:04:06.096Z,0
2017-10-08T04:04:46.619Z,0
2017-10-08T04:05:27.115Z,0
2017-10-08T04:06:07.619Z,0
2017-10-08T04:06:48.153Z,0
2017-10-08T04:07:28.659Z,0
2017-10-08T04:08:09.168Z,0
2017-10-08T04:08:49.678Z,0
2017-10-08T04:09:30.206Z,0
2017-10-08T04:10:10.739Z,0
2017-10-08T04:10:51.312Z,0
2017-10-08T04:11:31.809Z,0
2017-10-08T04:12:12.331Z,0
2017-10-08T04:12:52.934Z,0
2017-10-08T04:13:33.472Z,0
2017-10-08T04:14:14.000Z,0
2017-10-08T04:14:54.514Z,0
2017-10-08T04:15:35.064Z,0
2017-10-08T04:16:15.586Z,0
2017-10-08T04:16:56.108Z,0
2017-10-08T04:17:36.617Z,0
2017-10-08T04:18:17.163Z,0
2017-10-08T04:18:57.692Z,0
2017-10-08T04:19:38.231Z,0
2017-10-08T04:20:18.789Z,0
2017-10-08T04:20:59.322Z,0
2017-10-08T04:21:39.835Z,0
2017-10-08T04:22:20.346Z,0
2017-10-08T04:23:00.898Z,0
2017-10-08T04:23:41.409Z,0
2017-10-08T04:24:21.914Z,0
2017-10-08T04:25:02.431Z,0
2017-10-08T04:25:42.956Z,0
2017-10-08T04:26:23.467Z,0
2017-10-08T04:27:04.002Z,0
2017-10-08T04:27:44.520Z,0
2017-10-08T04:28:25.052Z,0
2017-10-08T04:29:05.572Z,0
2017-10-08T04:29:46.108Z,0
2017-10-08T04:30:26.643Z,0
2017-10-08T04:31:07.174Z,0
2017-10-08T04:31:47.703Z,0
2017-10-08T04:32:28.261Z,0
2017-10-08T04:33:08.776Z,0
2017-10-08T04:33:49.321Z,0
2017-10-08T04:34:29.861Z,0
2017-10-08T04:35:10.401Z,0
2017-10-08T04:35:51.001Z,0
2017-10-08T04:36:31.536Z,0
2017-10-08T04:37:12.064Z,0
2017-10-08T04:37:52.599Z,0
2017-10-08T04:38:33.113Z,0
2017-10-08T04:39:13.629Z,0
2017-10-08T04:39:54.170Z,0
2017-10-08T04:40:34.724Z,0
2017-10-08T04:41:15.246Z,0
2017-10-08T04:41:55.780Z,0
2017-10-08T04:42:36.301Z,0
2017-10-08T04:43:16.823Z,0
2017-10-08T04:43:57.339Z,0
2017-10-08T04:44:37.866Z,0
2017-10-08T04:45:18.388Z,0
2017-10-08T04:45:58.928Z,0
2017-10-08T04:46:39.471Z,0
2017-10-08T04:47:19.989Z,0
2017-10-08T04:48:00.485Z,0
2017-10-08T04:48:41.023Z,0
2017-10-08T04:49:21.584Z,0
2017-10-08T04:50:02.144Z,0
2017-10-08T04:50:42.673Z,0
2017-10-08T04:51:23.195Z,0
2017-10-08T04:52:03.731Z,0
2017-10-08T04:52:44.272Z,0
2017-10-08T04:53:24.784Z,0
2017-10-08T04:54:05.318Z,0
2017-10-08T04:54:45.842Z,0
2017-10-08T04:55:26.376Z,0
2017-10-08T04:56:06.887Z,0
2017-10-08T04:56:47.414Z,0
2017-10-08T04:57:27.944Z,0
2017-10-08T04:58:08.475Z,0
2017-10-08T04:58:49.035Z,0
2017-10-08T04:59:29.592Z,0
2017-10-08T05:00:10.134Z,0
2017-10-08T05:00:50.661Z,0
2017-10-08T05:01:31.188Z,0
2017-10-08T05:02:11.725Z,0
2017-10-08T05:02:52.247Z,0
2017-10-08T05:03:32.778Z,0
2017-10-08T05:04:13.301Z,0
2017-10-08T05:04:53.867Z,0
2017-10-08T05:05:34.415Z,0
2017-10-08T05:06:14.944Z,0
2017-10-08T05:06:55.457Z,0
2017-10-08T05:07:36.003Z,0
2017-10-08T05:08:16.515Z,0
2017-10-08T05:08:57.048Z,0
2017-10-08T05:09:37.588Z,0
2017-10-08T05:10:18.112Z,0
2017-10-08T05:10:58.642Z,0
2017-10-08T05:11:39.168Z,0
2017-10-08T05:12:19.675Z,0
2017-10-08T05:13:00.205Z,0
2017-10-08T05:13:40.731Z,0
2017-10-08T05:14:21.248Z,0
2017-10-08T05:15:01.780Z,0
2017-10-08T05:15:42.311Z,0
2017-10-08T05:16:22.850Z,0
2017-10-08T05:17:03.374Z,0
2017-10-08T05:17:43.910Z,0
2017-10-08T05:18:24.479Z,0
2017-10-08T05:19:05.025Z,4
2017-10-08T05:19:45.551Z,4
2017-10-08T05:20:26.089Z,0
2017-10-08T05:21:06.629Z,4
2017-10-08T05:21:47.148Z,4
2017-10-08T05:22:27.676Z,0
2017-10-08T05:23:08.201Z,4
2017-10-08T05:23:48.733Z,4
2017-10-08T05:24:29.479Z,4
2017-10-08T05:25:09.995Z,8
2017-10-08T05:25:50.514Z,8
2017-10-08T05:26:31.072Z,8
2017-10-08T05:27:11.627Z,12
2017-10-08T05:27:52.152Z,12
2017-10-08T05:28:32.720Z,12
2017-10-08T05:29:13.236Z,12
2017-10-08T05:29:53.755Z,16
2017-10-08T05:30:34.277Z,16
2017-10-08T05:31:14.805Z,16
2017-10-08T05:31:55.344Z,24
2017-10-08T05:32:35.876Z,20
2017-10-08T05:33:16.402Z,28
2017-10-08T05:33:57.008Z,32
2017-10-08T05:34:37.572Z,32
2017-10-08T05:35:18.130Z,28
2017-10-08T05:35:58.665Z,28
2017-10-08T05:36:39.202Z,28
2017-10-08T05:37:19.733Z,20
2017-10-08T05:38:00.258Z,24
2017-10-08T05:38:40.738Z,32
2017-10-08T05:39:21.277Z,28
2017-10-08T05:40:03.712Z,32
2017-10-08T05:40:44.361Z,32
2017-10-08T05:41:24.881Z,32
2017-10-08T05:42:05.397Z,28
2017-10-08T05:42:45.936Z,28
2017-10-08T05:43:26.449Z,36
2017-10-08T05:44:06.964Z,44
2017-10-08T05:44:47.743Z,52
2017-10-08T05:45:28.226Z,52
2017-10-08T05:46:08.711Z,56
2017-10-08T05:46:49.228Z,68
2017-10-08T05:47:29.768Z,84
2017-10-08T05:48:10.279Z,92
2017-10-08T05:48:50.793Z,108
2017-10-08T05:49:31.335Z,124
2017-10-08T05:50:11.872Z,116
2017-10-08T05:50:52.391Z,116
2017-10-08T05:51:32.914Z,128
2017-10-08T05:52:13.448Z,136
2017-10-08T05:52:53.975Z,156
2017-10-08T05:53:34.484Z,160
2017-10-08T05:54:15.020Z,172
2017-10-08T05:54:55.690Z,184
2017-10-08T05:55:36.218Z,208
2017-10-08T05:56:16.738Z,220
2017-10-08T05:56:57.274Z,220
2017-10-08T05:57:37.810Z,192
2017-10-08T05:58:18.338Z,188
2017-10-08T05:58:58.860Z,208
2017-10-08T05:59:39.366Z,244
2017-10-08T06:00:19.887Z,280
2017-10-08T06:01:00.423Z,260
2017-10-08T06:01:40.941Z,236
2017-10-08T06:02:21.513Z,256
2017-10-08T06:03:02.046Z,264
2017-10-08T06:03:42.578Z,272
2017-10-08T06:04:23.095Z,292
2017-10-08T06:05:03.591Z,316
2017-10-08T06:05:44.133Z,328
2017-10-08T06:06:24.652Z,308
2017-10-08T06:07:05.173Z,320
2017-10-08T06:07:45.705Z,320
2017-10-08T06:08:26.214Z,272
2017-10-08T06:09:06.734Z,284
2017-10-08T06:09:47.266Z,292
2017-10-08T06:10:27.795Z,260
2017-10-08T06:11:08.354Z,244
2017-10-08T06:11:48.908Z,264
2017-10-08T06:12:29.433Z,276
2017-10-08T06:13:10.477Z,328
2017-10-08T06:13:51.019Z,360
2017-10-08T06:14:31.572Z,308
2017-10-08T06:15:12.096Z,260
2017-10-08T06:15:52.618Z,228
2017-10-08T06:16:33.178Z,248
2017-10-08T06:17:13.784Z,276
2017-10-08T06:17:54.282Z,420
2017-10-08T06:18:34.883Z,556
2017-10-08T06:19:15.427Z,656
2017-10-08T06:19:55.941Z,624
2017-10-08T06:20:36.465Z,564
2017-10-08T06:21:17.078Z,484
2017-10-08T06:21:57.582Z,504
2017-10-08T06:22:38.095Z,516
2017-10-08T06:23:18.634Z,424
2017-10-08T06:23:59.138Z,436
2017-10-08T06:24:39.720Z,432
2017-10-08T06:25:20.483Z,456
2017-10-08T06:26:01.014Z,488
2017-10-08T06:26:41.545Z,448
2017-10-08T06:27:22.134Z,400
2017-10-08T06:28:02.734Z,380
2017-10-08T06:28:43.271Z,400
2017-10-08T06:29:23.931Z,412
2017-10-08T06:30:04.491Z,404
2017-10-08T06:30:45.010Z,464
2017-10-08T06:31:25.651Z,504
2017-10-08T06:32:06.328Z,492
2017-10-08T06:32:46.875Z,392
2017-10-08T06:33:27.403Z,380
2017-10-08T06:34:07.930Z,388
2017-10-08T06:34:48.590Z,428
2017-10-08T06:35:29.140Z,516
2017-10-08T06:36:09.656Z,536
2017-10-08T06:36:50.194Z,472
2017-10-08T06:37:30.763Z,372
2017-10-08T06:38:11.548Z,320
2017-10-08T06:38:52.217Z,336
2017-10-08T06:39:33.038Z,424
2017-10-08T06:40:13.433Z,496
2017-10-08T06:40:53.997Z,464
2017-10-08T06:41:34.536Z,444
2017-10-08T06:42:15.271Z,436
2017-10-08T06:42:55.708Z,424
2017-10-08T06:43:36.322Z,436
2017-10-08T06:44:16.836Z,500
2017-10-08T06:44:57.407Z,504
2017-10-08T06:45:37.949Z,440
2017-10-08T06:46:18.473Z,480
2017-10-08T06:46:58.993Z,528
2017-10-08T06:47:39.525Z,528
2017-10-08T06:48:20.074Z,592
2017-10-08T06:49:00.615Z,684
2017-10-08T06:49:41.143Z,736
2017-10-08T06:50:21.683Z,800
2017-10-08T06:51:02.215Z,996
2017-10-08T06:51:42.865Z,1248
2017-10-08T06:52:23.452Z,1396
2017-10-08T06:53:04.279Z,1404
2017-10-08T06:53:44.895Z,1300
2017-10-08T06:54:25.496Z,1268
2017-10-08T06:55:06.023Z,1284
2017-10-08T06:55:46.552Z,1108
2017-10-08T06:56:27.095Z,1164
2017-10-08T06:57:07.610Z,1264
2017-10-08T06:57:48.137Z,1496
2017-10-08T06:58:29.057Z,1276
2017-10-08T06:59:09.506Z,1256
2017-10-08T06:59:50.052Z,1328
2017-10-08T07:00:30.576Z,1516
2017-10-08T07:01:11.120Z,1816
2017-10-08T07:01:51.596Z,1752
2017-10-08T07:02:32.095Z,1860
2017-10-08T07:03:12.607Z,2228
2017-10-08T07:03:53.146Z,2144
2017-10-08T07:04:33.665Z,1668
2017-10-08T07:05:14.181Z,1376
2017-10-08T07:05:54.704Z,1240
2017-10-08T07:06:35.294Z,1036
2017-10-08T07:07:15.869Z,1148
2017-10-08T07:07:56.392Z,1036
2017-10-08T07:08:36.995Z,908
2017-10-08T07:09:17.567Z,972
2017-10-08T07:09:58.106Z,860
2017-10-08T07:10:38.631Z,760
2017-10-08T07:11:19.166Z,784
2017-10-08T07:11:59.693Z,836
2017-10-08T07:12:40.210Z,888
2017-10-08T07:13:20.776Z,968
2017-10-08T07:14:01.338Z,1308
2017-10-08T07:14:41.895Z,1552
2017-10-08T07:15:22.440Z,1880
2017-10-08T07:16:02.960Z,2040
2017-10-08T07:16:43.473Z,1984
2017-10-08T07:17:23.995Z,2384
2017-10-08T07:18:04.522Z,2784
2017-10-08T07:18:45.063Z,2396
2017-10-08T07:19:25.578Z,1520
2017-10-08T07:20:06.088Z,1296
2017-10-08T07:20:46.617Z,1188
2017-10-08T07:21:27.154Z,1292
2017-10-08T07:22:07.682Z,1184
2017-10-08T07:22:48.214Z,1040
2017-10-08T07:23:28.737Z,876
2017-10-08T07:24:09.263Z,868
2017-10-08T07:24:49.803Z,868
2017-10-08T07:25:30.294Z,828
2017-10-08T07:26:10.806Z,684
2017-10-08T07:26:51.342Z,884
2017-10-08T07:27:31.865Z,992
2017-10-08T07:28:12.384Z,1148
2017-10-08T07:28:52.908Z,1208
2017-10-08T07:29:33.429Z,1368
2017-10-08T07:30:14.002Z,1280
2017-10-08T07:30:54.600Z,1180
2017-10-08T07:31:35.168Z,1340
2017-10-08T07:32:15.686Z,1176
2017-10-08T07:32:56.218Z,1208
2017-10-08T07:33:36.757Z,1548
2017-10-08T07:34:17.518Z,1568
2017-10-08T07:34:58.011Z,1276
2017-10-08T07:35:38.537Z,1144
2017-10-08T07:36:19.064Z,1064
2017-10-08T07:36:59.624Z,1036
2017-10-08T07:37:40.246Z,1072
2017-10-08T07:38:20.761Z,1252
2017-10-08T07:39:01.264Z,1460
2017-10-08T07:39:41.792Z,1524
2017-10-08T07:40:22.310Z,1424
2017-10-08T07:41:02.839Z,1540
2017-10-08T07:41:43.387Z,1504
2017-10-08T07:42:23.906Z,1448
2017-10-08T07:43:04.431Z,1360
2017-10-08T07:43:44.930Z,1620
2017-10-08T07:44:25.465Z,1904
2017-10-08T07:45:05.977Z,2196
2017-10-08T07:45:46.499Z,1952
2017-10-08T07:46:27.008Z,1688
2017-10-08T07:47:07.558Z,1420
2017-10-08T07:47:48.086Z,1132
2017-10-08T07:48:28.616Z,920
2017-10-08T07:49:09.144Z,920
2017-10-08T07:49:49.685Z,1076
2017-10-08T07:50:30.220Z,1244
2017-10-08T07:51:10.737Z,1488
2017-10-08T07:51:51.253Z,1172
2017-10-08T07:52:31.822Z,1008
2017-10-08T07:53:12.326Z,880
2017-10-08T07:53:52.857Z,964
2017-10-08T07:54:33.417Z,920
2017-10-08T07:55:13.900Z,956
2017-10-08T07:55:54.415Z,1052
2017-10-08T07:56:34.934Z,1120
2017-10-08T07:57:15.441Z,968
2017-10-08T07:57:55.954Z,936
2017-10-08T07:58:36.461Z,1156
2017-10-08T07:59:16.977Z,1444
2017-10-08T07:59:57.488Z,1596
2017-10-08T08:00:37.995Z,1276
2017-10-08T08:01:18.508Z,1256
2017-10-08T08:01:59.043Z,1408
2017-10-08T08:02:39.576Z,1376
2017-10-08T08:03:20.109Z,1104
2017-10-08T08:04:00.642Z,1108
2017-10-08T08:04:41.155Z,1220
2017-10-08T08:05:21.689Z,1304
2017-10-08T08:06:02.181Z,1548
2017-10-08T08:06:42.712Z,1108
2017-10-08T08:07:23.241Z,1164
2017-10-08T08:08:03.758Z,976
2017-10-08T08:08:44.287Z,1280
2017-10-08T08:09:24.821Z,1268
2017-10-08T08:10:05.354Z,1820
2017-10-08T08:10:45.889Z,1692
2017-10-08T08:11:26.409Z,1496
2017-10-08T08:12:06.926Z,1412
2017-10-08T08:12:47.437Z,1468
2017-10-08T08:13:27.959Z,1260
2017-10-08T08:14:08.491Z,1176
2017-10-08T08:14:48.991Z,1080
2017-10-08T08:15:29.563Z,1168
2017-10-08T08:16:10.074Z,1164
2017-10-08T08:16:50.603Z,1188
2017-10-08T08:17:31.133Z,1284
2017-10-08T08:18:11.648Z,1444
2017-10-08T08:18:52.190Z,1564
2017-10-08T08:19:32.704Z,1604
2017-10-08T08:20:13.432Z,1984
2017-10-08T08:20:53.820Z,2000
2017-10-08T08:21:34.347Z,1956
2017-10-08T08:22:14.962Z,1884
2017-10-08T08:22:55.494Z,2396
2017-10-08T08:23:36.013Z,3824
2017-10-08T08:24:16.541Z,4504
2017-10-08T08:24:57.077Z,6684
2017-10-08T08:25:37.613Z,7780
2017-10-08T08:26:18.198Z,4412
2017-10-08T08:26:58.858Z,3572
2017-10-08T08:27:39.353Z,4532
2017-10-08T08:28:19.880Z,5612
2017-10-08T08:29:00.420Z,7712
2017-10-08T08:29:40.963Z,7756
2017-10-08T08:30:21.490Z,5868
2017-10-08T08:31:02.017Z,4340
2017-10-08T08:31:42.534Z,3604
2017-10-08T08:32:23.094Z,3588
2017-10-08T08:33:03.634Z,4012
2017-10-08T08:33:44.163Z,4588
2017-10-08T08:34:25.140Z,3712
2017-10-08T08:35:05.675Z,2888
2017-10-08T08:35:46.196Z,2604
2017-10-08T08:36:26.731Z,2636
2017-10-08T08:37:07.364Z,2860
2017-10-08T08:37:47.891Z,4216
2017-10-08T08:38:28.426Z,3412
2017-10-08T08:39:08.943Z,3400
2017-10-08T08:39:49.539Z,3320
2017-10-08T08:40:30.163Z,3380
2017-10-08T08:41:10.690Z,3416
2017-10-08T08:41:51.410Z,4056
2017-10-08T08:42:31.871Z,3116
2017-10-08T08:43:12.397Z,2772
2017-10-08T08:43:52.927Z,3828
2017-10-08T08:44:33.463Z,4556
2017-10-08T08:45:13.996Z,3280
2017-10-08T08:45:54.528Z,2616
2017-10-08T08:46:35.038Z,3100
2017-10-08T08:47:16.574Z,3284
2017-10-08T08:47:57.100Z,3340
2017-10-08T08:48:37.621Z,5116
2017-10-08T08:49:18.160Z,5652
2017-10-08T08:49:58.678Z,5756
2017-10-08T08:50:39.196Z,5256
2017-10-08T08:51:19.718Z,3884
2017-10-08T08:52:00.263Z,3444
2017-10-08T08:52:40.779Z,3480
2017-10-08T08:53:21.333Z,4240
2017-10-08T08:54:02.974Z,4940
2017-10-08T08:54:43.523Z,4288
2017-10-08T08:55:24.059Z,5252
2017-10-08T08:56:04.590Z,6800
2017-10-08T08:56:45.101Z,8196
2017-10-08T08:57:25.601Z,15308
2017-10-08T08:58:06.112Z,6948
2017-10-08T08:58:46.632Z,4568
2017-10-08T08:59:27.170Z,5244
2017-10-08T09:00:07.706Z,5592
2017-10-08T09:00:48.211Z,5536
2017-10-08T09:01:28.726Z,5620
2017-10-08T09:02:09.253Z,4576
2017-10-08T09:02:49.780Z,4324
2017-10-08T09:03:30.417Z,5496
2017-10-08T09:04:10.934Z,5736
2017-10-08T09:04:51.472Z,5304
2017-10-08T09:05:32.000Z,5096
2017-10-08T09:06:12.500Z,5736
2017-10-08T09:06:53.039Z,5684
2017-10-08T09:07:33.575Z,6040
2017-10-08T09:08:14.107Z,7528
2017-10-08T09:08:54.637Z,7488
2017-10-08T09:09:35.180Z,4632
2017-10-08T09:10:15.705Z,4472
2017-10-08T09:10:56.253Z,5284
2017-10-08T09:11:36.768Z,4592
2017-10-08T09:12:17.297Z,3900
2017-10-08T09:12:57.816Z,4168
2017-10-08T09:13:38.349Z,3120
2017-10-08T09:14:18.871Z,3152
2017-10-08T09:14:59.406Z,3584
2017-10-08T09:15:39.919Z,3516
2017-10-08T09:16:20.428Z,3364
2017-10-08T09:17:00.964Z,3868
2017-10-08T09:17:41.504Z,5680
2017-10-08T09:18:22.034Z,6156
2017-10-08T09:19:02.556Z,7200
2017-10-08T09:19:43.073Z,14880
2017-10-08T09:20:23.611Z,8332
2017-10-08T09:21:04.412Z,7840
2017-10-08T09:21:45.349Z,8212
2017-10-08T09:22:25.882Z,24576
2017-10-08T09:23:06.425Z,8668
2017-10-08T09:23:46.966Z,8056
2017-10-08T09:24:27.541Z,23616
2017-10-08T09:25:08.083Z,25792
2017-10-08T09:25:48.603Z,13196
2017-10-08T09:26:29.131Z,37920
2017-10-08T09:27:09.673Z,42656
2017-10-08T09:27:50.198Z,14032
2017-10-08T09:28:30.734Z,8132
2017-10-08T09:29:11.252Z,10816
2017-10-08T09:29:51.778Z,6796
2017-10-08T09:30:32.302Z,6488
2017-10-08T09:31:12.833Z,11540
2017-10-08T09:31:53.368Z,47552
2017-10-08T09:32:33.888Z,43328
2017-10-08T09:33:14.429Z,8880
2017-10-08T09:33:54.971Z,6880
2017-10-08T09:34:35.506Z,8308
2017-10-08T09:35:16.030Z,32960
2017-10-08T09:35:56.552Z,9496